Time;durP1;ratioP1;P1;durP2;ratioP2;P2;SDS_P1;SDS_P2;PMS_P1;PMS_P2;Temp;Humidity;BMP_temperature;BMP_pressure;BME280_temperature;BME280_humidity;BME280_pressure;Samples;Min_cycle;Max_cycle;Signal;HPM_P1;HPM_P2
2023/06/11 00:00:26;;;;;;;15.80;14.10;;;;;;;-128.00;-1.00;-1.00;102686;1270;1002731;-68
2023/06/11 00:02:56;;;;;;;18.00;15.40;;;;;;;-128.00;-1.00;-1.00;102690;1269;1002289;-68
2023/06/11 00:05:24;;;;;;;14.50;13.00;;;;;;;-128.00;-1.00;-1.00;102310;1264;1012905;-69
2023/06/11 00:07:52;;;;;;;16.10;14.00;;;;;;;-128.00;-1.00;-1.00;102617;1269;1009664;-70
2023/06/11 00:10:19;;;;;;;15.50;13.70;;;;;;;-128.00;-1.00;-1.00;102673;1264;1003159;-68
2023/06/11 00:12:46;;;;;;;16.60;13.00;;;;;;;-128.00;-1.00;-1.00;102629;1270;1002605;-67
2023/06/11 00:15:13;;;;;;;14.40;12.40;;;;;;;-128.00;-1.00;-1.00;102658;1269;1002660;-70
2023/06/11 00:17:41;;;;;;;18.60;13.40;;;;;;;-128.00;-1.00;-1.00;102620;1264;1002627;-66
2023/06/11 00:20:11;;;;;;;14.20;12.60;;;;;;;-128.00;-1.00;-1.00;102289;1272;1010253;-68
2023/06/11 00:22:38;;;;;;;16.10;12.60;;;;;;;-128.00;-1.00;-1.00;102639;1269;1010807;-68
2023/06/11 00:25:07;;;;;;;16.60;12.90;;;;;;;-128.00;-1.00;-1.00;102699;1269;1002681;-66
2023/06/11 00:27:35;;;;;;;12.20;10.80;;;;;;;-128.00;-1.00;-1.00;102632;1264;1012681;-69
2023/06/11 00:30:04;;;;;;;14.80;11.00;;;;;;;-128.00;-1.00;-1.00;102640;1264;1002415;-66
2023/06/11 00:32:33;;;;;;;13.00;9.90;;;;;;;-128.00;-1.00;-1.00;102645;1264;1009586;-67
2023/06/11 00:35:01;;;;;;;13.10;11.00;;;;;;;-128.00;-1.00;-1.00;102296;1264;1011149;-68
2023/06/11 00:37:30;;;;;;;17.70;11.40;;;;;;;-128.00;-1.00;-1.00;102309;1272;1012970;-65
2023/06/11 00:39:57;;;;;;;14.40;10.80;;;;;;;-128.00;-1.00;-1.00;102673;1269;1013516;-68
2023/06/11 00:42:23;;;;;;;12.60;10.20;;;;;;;-128.00;-1.00;-1.00;102617;1263;1002482;-69
2023/06/11 00:44:51;;;;;;;12.70;10.30;;;;;;;-128.00;-1.00;-1.00;102292;1267;1002930;-67
2023/06/11 00:47:18;;;;;;;11.00;9.70;;;;;;;-128.00;-1.00;-1.00;102607;1265;1003014;-63
2023/06/11 00:49:45;;;;;;;13.40;9.60;;;;;;;-128.00;-1.00;-1.00;102580;1266;1002859;-69
2023/06/11 00:52:15;;;;;;;11.20;9.20;;;;;;;-128.00;-1.00;-1.00;102596;1266;1002815;-67
2023/06/11 00:54:42;;;;;;;16.50;10.40;;;;;;;-128.00;-1.00;-1.00;102567;1260;1013054;-68
2023/06/11 00:57:10;;;;;;;11.60;9.70;;;;;;;-128.00;-1.00;-1.00;102594;1261;1002618;-70
2023/06/11 00:59:38;;;;;;;11.70;10.10;;;;;;;-128.00;-1.00;-1.00;102619;1266;1003089;-69
2023/06/11 01:02:17;;;;;;;;;;;;;;;-128.00;-1.00;-1.00;102590;1266;1013051;-74
2023/06/11 01:04:46;;;;;;;13.10;9.40;;;;;;;-128.00;-1.00;-1.00;102612;1261;1012088;-72
2023/06/11 01:07:15;;;;;;;13.20;9.90;;;;;;;-128.00;-1.00;-1.00;102657;1267;1012520;-73
2023/06/11 01:09:44;;;;;;;11.90;8.80;;;;;;;-128.00;-1.00;-1.00;102638;1260;1002620;-68
2023/06/11 01:12:12;;;;;;;12.10;8.50;;;;;;;-128.00;-1.00;-1.00;102650;1269;1011338;-67
2023/06/11 01:14:39;;;;;;;12.40;9.30;;;;;;;-128.00;-1.00;-1.00;102622;1264;1002800;-67
2023/06/11 01:17:15;;;;;;;10.10;9.10;;;;;;;-128.00;-1.00;-1.00;102605;1266;1002889;-65
2023/06/11 01:20:10;;;;;;;10.40;9.00;;;;;;;-128.00;-1.00;-1.00;102607;1260;1012254;-68
2023/06/11 01:22:58;;;;;;;13.80;9.00;;;;;;;-128.00;-1.00;-1.00;102663;1261;1010001;-69
2023/06/11 01:25:48;;;;;;;14.50;10.60;;;;;;;-128.00;-1.00;-1.00;102636;1266;1011197;-68
2023/06/11 01:28:19;;;;;;;13.50;10.30;;;;;;;-128.00;-1.00;-1.00;102593;1264;1012871;-67
2023/06/11 01:30:50;;;;;;;12.60;10.80;;;;;;;-128.00;-1.00;-1.00;102613;1264;1013677;-69
2023/06/11 01:33:18;;;;;;;16.20;10.60;;;;;;;-128.00;-1.00;-1.00;102650;1264;1013231;-65
2023/06/11 01:35:48;;;;;;;14.00;11.10;;;;;;;-128.00;-1.00;-1.00;103011;1257;1010435;-66
2023/06/11 01:38:17;;;;;;;16.50;9.90;;;;;;;-128.00;-1.00;-1.00;103035;1257;1011283;-69
2023/06/11 01:40:48;;;;;;;11.20;9.50;;;;;;;-128.00;-1.00;-1.00;103000;1260;1012999;-69
2023/06/11 01:43:16;;;;;;;14.90;10.00;;;;;;;-128.00;-1.00;-1.00;103045;1260;1003081;-71
2023/06/11 01:45:43;;;;;;;12.60;10.30;;;;;;;-128.00;-1.00;-1.00;103003;1257;1002936;-69
2023/06/11 01:48:10;;;;;;;11.10;9.30;;;;;;;-128.00;-1.00;-1.00;102988;1257;1002513;-69
2023/06/11 01:50:39;;;;;;;13.80;10.30;;;;;;;-128.00;-1.00;-1.00;103022;1261;1011362;-69
2023/06/11 01:53:06;;;;;;;17.30;10.10;;;;;;;-128.00;-1.00;-1.00;103054;1260;1002517;-70
2023/06/11 01:55:33;;;;;;;13.30;9.80;;;;;;;-128.00;-1.00;-1.00;102962;1260;1002765;-70
2023/06/11 01:58:00;;;;;;;11.10;9.60;;;;;;;-128.00;-1.00;-1.00;102984;1257;1002621;-68
2023/06/11 02:00:28;;;;;;;;;;;;;;;-128.00;-1.00;-1.00;102696;1264;1010010;-69
2023/06/11 02:02:54;;;;;;;9.40;7.80;;;;;;;-128.00;-1.00;-1.00;102927;1259;1002477;-70
2023/06/11 02:05:21;;;;;;;15.70;9.40;;;;;;;-128.00;-1.00;-1.00;103027;1257;1002565;-69
2023/06/11 02:07:48;;;;;;;15.30;8.70;;;;;;;-128.00;-1.00;-1.00;102972;1260;1002873;-69
2023/06/11 02:10:15;;;;;;;9.00;7.90;;;;;;;-128.00;-1.00;-1.00;102892;1257;1002752;-70
2023/06/11 02:12:42;;;;;;;10.50;8.90;;;;;;;-128.00;-1.00;-1.00;103009;1257;1002687;-69
2023/06/11 02:15:09;;;;;;;12.50;9.50;;;;;;;-128.00;-1.00;-1.00;102988;1257;1002545;-68
2023/06/11 02:17:36;;;;;;;9.70;8.80;;;;;;;-128.00;-1.00;-1.00;102938;1257;1002147;-69
2023/06/11 02:20:08;;;;;;;14.60;9.10;;;;;;;-128.00;-1.00;-1.00;102952;1257;1003225;-69
2023/06/11 02:22:34;;;;;;;9.30;8.10;;;;;;;-128.00;-1.00;-1.00;103051;1257;1013546;-66
2023/06/11 02:25:01;;;;;;;10.90;9.00;;;;;;;-128.00;-1.00;-1.00;103047;1257;1002828;-69
2023/06/11 02:27:29;;;;;;;14.10;8.80;;;;;;;-128.00;-1.00;-1.00;102667;1257;1003005;-69
2023/06/11 02:29:57;;;;;;;9.70;8.30;;;;;;;-128.00;-1.00;-1.00;103075;1260;1002675;-68
2023/06/11 02:32:24;;;;;;;9.40;7.80;;;;;;;-128.00;-1.00;-1.00;102990;1262;1002792;-69
2023/06/11 02:34:51;;;;;;;12.50;8.50;;;;;;;-128.00;-1.00;-1.00;102970;1257;1002928;-75
2023/06/11 02:37:18;;;;;;;10.20;8.10;;;;;;;-128.00;-1.00;-1.00;102673;1260;1003773;-71
2023/06/11 02:39:45;;;;;;;10.40;7.90;;;;;;;-128.00;-1.00;-1.00;103063;1257;1003112;-69
2023/06/11 02:42:12;;;;;;;9.90;7.80;;;;;;;-128.00;-1.00;-1.00;103037;1261;1002973;-69
2023/06/11 02:44:39;;;;;;;11.50;7.80;;;;;;;-128.00;-1.00;-1.00;103075;1260;1002759;-70
2023/06/11 02:47:07;;;;;;;9.20;7.80;;;;;;;-128.00;-1.00;-1.00;103044;1257;1002519;-68
2023/06/11 02:49:34;;;;;;;15.90;7.30;;;;;;;-128.00;-1.00;-1.00;103010;1257;1002408;-67
2023/06/11 02:52:01;;;;;;;10.40;7.20;;;;;;;-128.00;-1.00;-1.00;103067;1257;1002554;-70
2023/06/11 02:54:28;;;;;;;11.30;8.10;;;;;;;-128.00;-1.00;-1.00;103039;1260;1002476;-69
2023/06/11 02:56:55;;;;;;;12.70;7.90;;;;;;;-128.00;-1.00;-1.00;103030;1260;1002639;-69
2023/06/11 02:59:22;;;;;;;8.80;7.20;;;;;;;-128.00;-1.00;-1.00;102931;1260;1002448;-69
2023/06/11 03:01:49;;;;;;;10.70;7.00;;;;;;;-128.00;-1.00;-1.00;102924;1257;1002581;-69
2023/06/11 03:04:16;;;;;;;9.50;7.40;;;;;;;-128.00;-1.00;-1.00;102695;1257;1003144;-68
2023/06/11 03:06:43;;;;;;;8.20;7.00;;;;;;;-128.00;-1.00;-1.00;102670;1266;1002804;-70
2023/06/11 03:09:10;;;;;;;9.00;7.20;;;;;;;-128.00;-1.00;-1.00;103021;1256;1003278;-70
2023/06/11 03:11:37;;;;;;;9.80;7.00;;;;;;;-128.00;-1.00;-1.00;102638;1260;1002588;-71
2023/06/11 03:14:04;;;;;;;11.60;6.50;;;;;;;-128.00;-1.00;-1.00;103028;1256;1003268;-69
2023/06/11 03:16:32;;;;;;;12.70;6.60;;;;;;;-128.00;-1.00;-1.00;103112;1257;1002681;-68
2023/06/11 03:18:59;;;;;;;9.30;7.20;;;;;;;-128.00;-1.00;-1.00;103024;1260;1013678;-68
2023/06/11 03:21:26;;;;;;;7.40;6.70;;;;;;;-128.00;-1.00;-1.00;103017;1260;1002889;-69
2023/06/11 03:23:53;;;;;;;9.70;7.30;;;;;;;-128.00;-1.00;-1.00;102948;1257;1003222;-66
2023/06/11 03:26:20;;;;;;;9.00;6.30;;;;;;;-128.00;-1.00;-1.00;103033;1257;1002642;-68
2023/06/11 03:28:48;;;;;;;7.60;6.80;;;;;;;-128.00;-1.00;-1.00;103027;1261;1002128;-70
2023/06/11 03:31:16;;;;;;;;;;;;;;;-128.00;-1.00;-1.00;103081;1260;1012806;-69
2023/06/11 03:33:43;;;;;;;8.10;6.00;;;;;;;-128.00;-1.00;-1.00;103023;1260;1002525;-69
2023/06/11 03:36:10;;;;;;;7.90;6.40;;;;;;;-128.00;-1.00;-1.00;103027;1256;1002926;-69
2023/06/11 03:38:37;;;;;;;7.80;6.50;;;;;;;-128.00;-1.00;-1.00;103428;1254;1003011;-71
2023/06/11 03:41:04;;;;;;;7.40;5.80;;;;;;;-128.00;-1.00;-1.00;103382;1256;1003041;-68
2023/06/11 03:43:32;;;;;;;8.00;6.50;;;;;;;-128.00;-1.00;-1.00;103043;1256;1002772;-66
2023/06/11 03:45:59;;;;;;;7.20;6.00;;;;;;;-128.00;-1.00;-1.00;103373;1256;1002620;-69
2023/06/11 03:48:26;;;;;;;12.70;6.10;;;;;;;-128.00;-1.00;-1.00;103400;1254;1003161;-71
2023/06/11 03:50:53;;;;;;;8.00;6.90;;;;;;;-128.00;-1.00;-1.00;103152;1254;1002602;-70
2023/06/11 03:53:20;;;;;;;7.80;5.70;;;;;;;-128.00;-1.00;-1.00;103361;1254;1002946;-68
2023/06/11 03:55:47;;;;;;;9.20;6.00;;;;;;;-128.00;-1.00;-1.00;103400;1256;1002469;-69
2023/06/11 03:58:14;;;;;;;10.30;7.10;;;;;;;-128.00;-1.00;-1.00;103138;1253;1003216;-70
2023/06/11 04:00:41;;;;;;;7.20;6.10;;;;;;;-128.00;-1.00;-1.00;102992;1254;1003177;-70
2023/06/11 04:03:08;;;;;;;9.40;7.40;;;;;;;-128.00;-1.00;-1.00;103111;1254;1002602;-69
2023/06/11 04:05:36;;;;;;;8.80;6.30;;;;;;;-128.00;-1.00;-1.00;103380;1253;1003019;-71
2023/06/11 04:08:03;;;;;;;8.00;6.10;;;;;;;-128.00;-1.00;-1.00;103374;1256;1002384;-72
2023/06/11 04:10:31;;;;;;;10.30;6.40;;;;;;;-128.00;-1.00;-1.00;103418;1256;1002919;-69
2023/06/11 04:12:58;;;;;;;8.20;5.60;;;;;;;-128.00;-1.00;-1.00;103104;1254;1002689;-71
2023/06/11 04:15:25;;;;;;;12.30;7.00;;;;;;;-128.00;-1.00;-1.00;103062;1253;1002566;-70
2023/06/11 04:17:53;;;;;;;7.70;6.20;;;;;;;-128.00;-1.00;-1.00;103023;1259;1002768;-68
2023/06/11 04:20:21;;;;;;;7.80;6.00;;;;;;;-128.00;-1.00;-1.00;103368;1256;1002746;-70
2023/06/11 04:22:48;;;;;;;11.00;6.10;;;;;;;-128.00;-1.00;-1.00;103104;1259;1002984;-67
2023/06/11 04:25:16;;;;;;;8.10;6.80;;;;;;;-128.00;-1.00;-1.00;103336;1254;1002618;-67
2023/06/11 04:27:46;;;;;;;8.80;6.50;;;;;;;-128.00;-1.00;-1.00;103386;1254;1010717;-63
2023/06/11 04:30:14;;;;;;;10.00;6.70;;;;;;;-128.00;-1.00;-1.00;103158;1253;1012207;-69
2023/06/11 04:32:44;;;;;;;9.90;6.70;;;;;;;-128.00;-1.00;-1.00;103380;1256;1012856;-69
2023/06/11 04:35:11;;;;;;;;;;;;;;;-128.00;-1.00;-1.00;103401;1256;1012070;-69
2023/06/11 04:37:45;;;;;;;8.00;6.30;;;;;;;-128.00;-1.00;-1.00;103155;1254;1013220;-68
2023/06/11 04:40:18;;;;;;;11.30;6.60;;;;;;;-128.00;-1.00;-1.00;103413;1252;1010061;-65
2023/06/11 04:42:46;;;;;;;7.90;5.80;;;;;;;-128.00;-1.00;-1.00;103418;1254;1011828;-65
2023/06/11 04:45:18;;;;;;;;;;;;;;;-128.00;-1.00;-1.00;103093;1259;1013861;-68
2023/06/11 04:47:46;;;;;;;9.70;5.90;;;;;;;-128.00;-1.00;-1.00;103359;1256;1012575;-68
2023/06/11 04:50:20;;;;;;;8.70;5.70;;;;;;;-128.00;-1.00;-1.00;103460;1254;1012349;-69
2023/06/11 04:52:51;;;;;;;19.40;7.00;;;;;;;-128.00;-1.00;-1.00;103380;1252;1010338;-73
2023/06/11 04:55:21;;;;;;;10.50;6.20;;;;;;;-128.00;-1.00;-1.00;103185;1254;1012108;-69
2023/06/11 04:57:49;;;;;;;6.40;5.80;;;;;;;-128.00;-1.00;-1.00;103104;1254;1012282;-68
2023/06/11 05:00:17;;;;;;;6.60;5.60;;;;;;;-128.00;-1.00;-1.00;103381;1257;1012231;-66
2023/06/11 05:02:45;;;;;;;6.20;5.20;;;;;;;-128.00;-1.00;-1.00;103383;1252;1002608;-71
2023/06/11 05:05:13;;;;;;;8.20;5.60;;;;;;;-128.00;-1.00;-1.00;103451;1253;1009837;-70
2023/06/11 05:07:41;;;;;;;;;;;;;;;-128.00;-1.00;-1.00;103154;1254;1011167;-68
2023/06/11 05:10:08;;;;;;;9.90;5.20;;;;;;;-128.00;-1.00;-1.00;103090;1259;1002891;-66
2023/06/11 05:12:36;;;;;;;9.60;5.70;;;;;;;-128.00;-1.00;-1.00;103272;1256;1002951;-68
2023/06/11 05:15:04;;;;;;;6.60;5.00;;;;;;;-128.00;-1.00;-1.00;103071;1254;1002723;-71
2023/06/11 05:17:32;;;;;;;5.10;4.60;;;;;;;-128.00;-1.00;-1.00;103291;1252;1004734;-69
2023/06/11 05:20:00;;;;;;;7.90;4.30;;;;;;;-128.00;-1.00;-1.00;103434;1253;1011158;-69
2023/06/11 05:22:27;;;;;;;11.50;4.90;;;;;;;-128.00;-1.00;-1.00;103368;1256;1003195;-67
2023/06/11 05:24:54;;;;;;;7.40;5.30;;;;;;;-128.00;-1.00;-1.00;103402;1256;1002625;-68
2023/06/11 05:27:23;;;;;;;6.50;5.00;;;;;;;-128.00;-1.00;-1.00;103082;1254;1002658;-68
2023/06/11 05:29:51;;;;;;;8.30;5.10;;;;;;;-128.00;-1.00;-1.00;103420;1253;1010181;-69
2023/06/11 05:32:18;;;;;;;7.70;5.70;;;;;;;-128.00;-1.00;-1.00;103402;1254;1003102;-67
2023/06/11 05:34:45;;;;;;;8.30;6.10;;;;;;;-128.00;-1.00;-1.00;103173;1257;1003008;-68
2023/06/11 05:37:14;;;;;;;6.30;4.90;;;;;;;-128.00;-1.00;-1.00;103002;1259;1012793;-67
2023/06/11 05:39:41;;;;;;;8.10;6.80;;;;;;;-128.00;-1.00;-1.00;103174;1254;1002758;-67
2023/06/11 05:42:10;;;;;;;8.20;7.00;;;;;;;-128.00;-1.00;-1.00;103171;1253;1002679;-70
2023/06/11 05:44:38;;;;;;;7.90;6.40;;;;;;;-128.00;-1.00;-1.00;103131;1253;1011069;-73
2023/06/11 05:47:06;;;;;;;11.50;5.80;;;;;;;-128.00;-1.00;-1.00;103092;1259;1002814;-64
2023/06/11 05:49:33;;;;;;;5.40;4.90;;;;;;;-128.00;-1.00;-1.00;103094;1258;1004362;-63
2023/06/11 05:52:00;;;;;;;8.70;5.60;;;;;;;-128.00;-1.00;-1.00;103352;1254;1002611;-64
2023/06/11 05:54:27;;;;;;;8.30;5.60;;;;;;;-128.00;-1.00;-1.00;103124;1253;1002591;-66
2023/06/11 05:56:56;;;;;;;6.20;5.40;;;;;;;-128.00;-1.00;-1.00;103117;1253;1002664;-69
2023/06/11 05:59:22;;;;;;;5.90;5.30;;;;;;;-128.00;-1.00;-1.00;103290;1256;1012987;-70
2023/06/11 06:01:49;;;;;;;7.50;5.40;;;;;;;-128.00;-1.00;-1.00;103376;1256;1002661;-69
2023/06/11 06:04:18;;;;;;;8.00;5.60;;;;;;;-128.00;-1.00;-1.00;103364;1254;1012657;-64
2023/06/11 06:06:45;;;;;;;6.00;5.40;;;;;;;-128.00;-1.00;-1.00;103359;1254;1002749;-65
2023/06/11 06:09:14;;;;;;;13.30;5.60;;;;;;;-128.00;-1.00;-1.00;103060;1253;1002741;-66
2023/06/11 06:11:41;;;;;;;6.30;5.70;;;;;;;-128.00;-1.00;-1.00;103342;1257;1002660;-68
2023/06/11 06:14:08;;;;;;;6.20;5.10;;;;;;;-128.00;-1.00;-1.00;103362;1256;1002444;-68
2023/06/11 06:16:35;;;;;;;6.60;4.90;;;;;;;-128.00;-1.00;-1.00;103431;1253;1002825;-66
2023/06/11 06:19:03;;;;;;;8.70;4.80;;;;;;;-128.00;-1.00;-1.00;102970;1257;1002920;-66
2023/06/11 06:21:30;;;;;;;5.60;4.80;;;;;;;-128.00;-1.00;-1.00;103034;1257;1002852;-69
2023/06/11 06:23:57;;;;;;;6.80;4.60;;;;;;;-128.00;-1.00;-1.00;102915;1259;1002384;-73
2023/06/11 06:26:25;;;;;;;4.90;4.50;;;;;;;-128.00;-1.00;-1.00;103007;1262;1003728;-68
2023/06/11 06:28:53;;;;;;;12.80;5.20;;;;;;;-128.00;-1.00;-1.00;103043;1257;1013774;-66
2023/06/11 06:31:22;;;;;;;5.50;4.60;;;;;;;-128.00;-1.00;-1.00;102936;1257;1002638;-67
2023/06/11 06:33:50;;;;;;;7.10;5.00;;;;;;;-128.00;-1.00;-1.00;102961;1257;1011762;-61
2023/06/11 06:36:19;;;;;;;4.80;4.40;;;;;;;-128.00;-1.00;-1.00;102891;1259;1002355;-65
2023/06/11 06:38:48;;;;;;;6.90;4.30;;;;;;;-128.00;-1.00;-1.00;102985;1259;1012246;-67
2023/06/11 06:41:15;;;;;;;8.20;4.20;;;;;;;-128.00;-1.00;-1.00;102792;1257;1002876;-64
2023/06/11 06:43:42;;;;;;;5.30;4.50;;;;;;;-128.00;-1.00;-1.00;103021;1255;1002318;-66
2023/06/11 06:46:12;;;;;;;6.70;4.20;;;;;;;-128.00;-1.00;-1.00;102944;1259;1011871;-70
2023/06/11 06:48:39;;;;;;;5.20;4.50;;;;;;;-128.00;-1.00;-1.00;102647;1263;1002380;-64
2023/06/11 06:51:08;;;;;;;5.60;4.80;;;;;;;-128.00;-1.00;-1.00;103203;1256;1012436;-66
2023/06/11 06:53:36;;;;;;;6.20;3.70;;;;;;;-128.00;-1.00;-1.00;103411;1254;1002888;-69
2023/06/11 06:56:05;;;;;;;5.50;3.30;;;;;;;-128.00;-1.00;-1.00;103423;1254;1003004;-62
2023/06/11 06:58:34;;;;;;;6.70;4.20;;;;;;;-128.00;-1.00;-1.00;103352;1254;1011277;-68
2023/06/11 07:01:01;;;;;;;4.30;3.70;;;;;;;-128.00;-1.00;-1.00;103193;1253;1002858;-64
2023/06/11 07:03:28;;;;;;;5.40;3.70;;;;;;;-128.00;-1.00;-1.00;103071;1258;1002711;-65
2023/06/11 07:05:55;;;;;;;3.70;3.40;;;;;;;-128.00;-1.00;-1.00;103320;1254;1002696;-65
2023/06/11 07:08:22;;;;;;;4.40;3.50;;;;;;;-128.00;-1.00;-1.00;103308;1253;1002599;-69
2023/06/11 07:10:51;;;;;;;4.50;4.10;;;;;;;-128.00;-1.00;-1.00;103122;1253;1003151;-70
2023/06/11 07:13:22;;;;;;;3.70;3.40;;;;;;;-128.00;-1.00;-1.00;103294;1256;1013737;-69
2023/06/11 07:15:50;;;;;;;4.30;3.90;;;;;;;-128.00;-1.00;-1.00;103257;1254;1003380;-71
2023/06/11 07:18:17;;;;;;;6.20;4.00;;;;;;;-128.00;-1.00;-1.00;103103;1253;1002781;-76
2023/06/11 07:20:44;;;;;;;4.10;3.30;;;;;;;-128.00;-1.00;-1.00;103261;1253;1002518;-68
2023/06/11 07:23:11;;;;;;;4.60;2.80;;;;;;;-128.00;-1.00;-1.00;103125;1254;1002978;-67
2023/06/11 07:25:38;;;;;;;5.20;2.90;;;;;;;-128.00;-1.00;-1.00;103051;1258;1002583;-66
2023/06/11 07:28:06;;;;;;;4.10;3.20;;;;;;;-128.00;-1.00;-1.00;103309;1253;1012789;-65
2023/06/11 07:30:34;;;;;;;4.00;2.60;;;;;;;-128.00;-1.00;-1.00;103327;1253;1002514;-67
2023/06/11 07:33:01;;;;;;;3.10;2.80;;;;;;;-128.00;-1.00;-1.00;103355;1254;1002447;-69
2023/06/11 07:35:28;;;;;;;7.80;3.10;;;;;;;-128.00;-1.00;-1.00;103149;1253;1002361;-70
2023/06/11 07:37:55;;;;;;;3.10;2.80;;;;;;;-128.00;-1.00;-1.00;103237;1256;1003210;-68
2023/06/11 07:40:22;;;;;;;3.70;3.40;;;;;;;-128.00;-1.00;-1.00;103323;1256;1002679;-67
2023/06/11 07:42:49;;;;;;;6.90;3.70;;;;;;;-128.00;-1.00;-1.00;103286;1253;1002752;-70
2023/06/11 07:45:17;;;;;;;3.90;3.60;;;;;;;-128.00;-1.00;-1.00;103140;1253;1002883;-64
2023/06/11 07:47:46;;;;;;;5.90;3.60;;;;;;;-128.00;-1.00;-1.00;103221;1253;1011713;-66
2023/06/11 07:50:13;;;;;;;5.40;3.60;;;;;;;-128.00;-1.00;-1.00;103297;1256;1002676;-68
2023/06/11 07:52:41;;;;;;;5.00;4.00;;;;;;;-128.00;-1.00;-1.00;103320;1256;1003164;-70
2023/06/11 07:55:13;;;;;;;3.80;3.40;;;;;;;-128.00;-1.00;-1.00;103314;1253;1013728;-67
2023/06/11 07:57:40;;;;;;;7.30;4.30;;;;;;;-128.00;-1.00;-1.00;103293;1254;1003104;-69
2023/06/11 08:00:12;;;;;;;12.50;4.20;;;;;;;-128.00;-1.00;-1.00;103319;1253;1002977;-69
2023/06/11 08:02:40;;;;;;;6.50;4.80;;;;;;;-128.00;-1.00;-1.00;103297;1256;1013028;-67
2023/06/11 08:05:10;;;;;;;6.40;4.90;;;;;;;-128.00;-1.00;-1.00;102696;1265;1002680;-66
2023/06/11 08:07:38;;;;;;;5.40;4.80;;;;;;;-128.00;-1.00;-1.00;103046;1254;1012506;-66
2023/06/11 08:10:06;;;;;;;6.00;5.40;;;;;;;-128.00;-1.00;-1.00;103335;1252;1002377;-69
2023/06/11 08:12:33;;;;;;;5.50;5.00;;;;;;;-128.00;-1.00;-1.00;103307;1253;1011340;-66
2023/06/11 08:15:01;;;;;;;7.30;4.80;;;;;;;-128.00;-1.00;-1.00;103274;1257;1002916;-67
2023/06/11 08:17:28;;;;;;;9.70;5.80;;;;;;;-128.00;-1.00;-1.00;103330;1256;1002754;-63
2023/06/11 08:19:55;;;;;;;9.50;5.80;;;;;;;-128.00;-1.00;-1.00;103340;1254;1002880;-67
2023/06/11 08:22:22;;;;;;;5.30;4.50;;;;;;;-128.00;-1.00;-1.00;103300;1253;1002745;-65
2023/06/11 08:24:49;;;;;;;6.20;4.70;;;;;;;-128.00;-1.00;-1.00;103332;1253;1002843;-67
2023/06/11 08:27:15;;;;;;;5.30;4.80;;;;;;;-128.00;-1.00;-1.00;103286;1256;1002615;-64
2023/06/11 08:29:42;;;;;;;5.40;4.90;;;;;;;-128.00;-1.00;-1.00;103348;1256;1002922;-65
2023/06/11 08:32:09;;;;;;;6.00;5.30;;;;;;;-128.00;-1.00;-1.00;103095;1254;1002886;-66
2023/06/11 08:34:36;;;;;;;4.40;3.90;;;;;;;-128.00;-1.00;-1.00;103315;1254;1003235;-65
2023/06/11 08:37:04;;;;;;;5.00;4.30;;;;;;;-128.00;-1.00;-1.00;103346;1254;1002769;-66
2023/06/11 08:39:31;;;;;;;4.70;4.40;;;;;;;-128.00;-1.00;-1.00;103299;1254;1002292;-68
2023/06/11 08:41:58;;;;;;;5.90;4.10;;;;;;;-128.00;-1.00;-1.00;103332;1256;1003284;-69
2023/06/11 08:44:24;;;;;;;8.10;4.20;;;;;;;-128.00;-1.00;-1.00;103316;1252;1003087;-67
2023/06/11 08:46:54;;;;;;;9.20;4.80;;;;;;;-128.00;-1.00;-1.00;103331;1256;1010212;-65
2023/06/11 08:49:22;;;;;;;6.10;4.30;;;;;;;-128.00;-1.00;-1.00;103112;1253;1004952;-71
2023/06/11 08:51:50;;;;;;;4.60;4.20;;;;;;;-128.00;-1.00;-1.00;103239;1257;1002614;-68
2023/06/11 08:54:17;;;;;;;4.70;4.20;;;;;;;-128.00;-1.00;-1.00;103352;1256;1002907;-64
2023/06/11 08:56:44;;;;;;;4.40;4.00;;;;;;;-128.00;-1.00;-1.00;103347;1254;1002779;-66
2023/06/11 08:59:11;;;;;;;4.90;4.20;;;;;;;-128.00;-1.00;-1.00;103326;1254;1002742;-63
2023/06/11 09:01:39;;;;;;;5.30;4.00;;;;;;;-128.00;-1.00;-1.00;103346;1256;1002965;-66
2023/06/11 09:04:07;;;;;;;7.20;3.70;;;;;;;-128.00;-1.00;-1.00;103304;1256;1012457;-65
2023/06/11 09:06:36;;;;;;;5.00;4.50;;;;;;;-128.00;-1.00;-1.00;102989;1259;1011713;-65
2023/06/11 09:09:05;;;;;;;6.00;4.10;;;;;;;-128.00;-1.00;-1.00;103026;1253;1002787;-67
2023/06/11 09:11:36;;;;;;;4.80;4.10;;;;;;;-128.00;-1.00;-1.00;103243;1256;1010799;-64
2023/06/11 09:14:03;;;;;;;7.90;5.10;;;;;;;-128.00;-1.00;-1.00;103335;1253;1010784;-63
2023/06/11 09:16:44;;;;;;;5.70;5.00;;;;;;;-128.00;-1.00;-1.00;103057;1253;1002611;-65
2023/06/11 09:19:20;;;;;;;5.40;4.50;;;;;;;-128.00;-1.00;-1.00;103306;1254;1013584;-65
2023/06/11 09:21:51;;;;;;;6.90;4.70;;;;;;;-128.00;-1.00;-1.00;103384;1254;1012489;-63
2023/06/11 09:24:21;;;;;;;5.80;4.50;;;;;;;-128.00;-1.00;-1.00;103335;1254;1010784;-67
2023/06/11 09:26:55;;;;;;;8.90;5.10;;;;;;;-128.00;-1.00;-1.00;103100;1262;1011132;-64
2023/06/11 09:29:22;;;;;;;4.60;3.90;;;;;;;-128.00;-1.00;-1.00;103264;1259;1012634;-67
2023/06/11 09:32:00;;;;;;;6.80;4.50;;;;;;;-128.00;-1.00;-1.00;103070;1259;1002873;-64
2023/06/11 09:34:27;;;;;;;;;;;;;;;-128.00;-1.00;-1.00;103181;1253;1012724;-66
2023/06/11 09:36:54;;;;;;;4.20;3.50;;;;;;;-128.00;-1.00;-1.00;103323;1254;1002666;-64
2023/06/11 09:39:21;;;;;;;5.60;4.90;;;;;;;-128.00;-1.00;-1.00;103305;1253;1003195;-67
2023/06/11 09:41:48;;;;;;;6.50;4.70;;;;;;;-128.00;-1.00;-1.00;103365;1256;1002370;-62
2023/06/11 09:44:18;;;;;;;5.60;4.90;;;;;;;-128.00;-1.00;-1.00;103383;1256;1003102;-63
2023/06/11 09:46:48;;;;;;;4.90;4.40;;;;;;;-128.00;-1.00;-1.00;103369;1254;1013166;-64
2023/06/11 09:49:16;;;;;;;3.80;3.40;;;;;;;-128.00;-1.00;-1.00;103310;1254;1009767;-63
2023/06/11 09:51:43;;;;;;;6.30;4.80;;;;;;;-128.00;-1.00;-1.00;102810;1254;1002683;-63
2023/06/11 09:54:12;;;;;;;7.60;4.90;;;;;;;-128.00;-1.00;-1.00;103340;1256;1002782;-66
2023/06/11 09:56:40;;;;;;;6.80;4.20;;;;;;;-128.00;-1.00;-1.00;102940;1259;1013131;-69
2023/06/11 09:59:07;;;;;;;;;;;;;;;-128.00;-1.00;-1.00;103209;1254;1013654;-60
2023/06/11 10:01:34;;;;;;;6.80;4.70;;;;;;;-128.00;-1.00;-1.00;102981;1253;1002704;-61
2023/06/11 10:04:01;;;;;;;7.80;4.90;;;;;;;-128.00;-1.00;-1.00;103338;1254;1002983;-66
2023/06/11 10:06:30;;;;;;;9.90;5.20;;;;;;;-128.00;-1.00;-1.00;103352;1256;1002796;-64
2023/06/11 10:08:58;;;;;;;5.20;4.70;;;;;;;-128.00;-1.00;-1.00;103340;1256;1011923;-65
2023/06/11 10:11:25;;;;;;;7.10;4.50;;;;;;;-128.00;-1.00;-1.00;103368;1254;1002968;-62
2023/06/11 10:14:00;;;;;;;5.80;4.10;;;;;;;-128.00;-1.00;-1.00;103298;1254;1002716;-64
2023/06/11 10:16:27;;;;;;;4.60;3.80;;;;;;;-128.00;-1.00;-1.00;103329;1255;1011182;-66
2023/06/11 10:19:14;;;;;;;9.50;4.30;;;;;;;-128.00;-1.00;-1.00;103109;1259;1002562;-64
2023/06/11 10:21:45;;;;;;;7.00;3.90;;;;;;;-128.00;-1.00;-1.00;103022;1259;1013583;-65
2023/06/11 10:24:24;;;;;;;8.40;4.50;;;;;;;-128.00;-1.00;-1.00;103306;1254;1013342;-61
2023/06/11 10:27:05;;;;;;;6.60;5.50;;;;;;;-128.00;-1.00;-1.00;103353;1253;1010789;-63
2023/06/11 10:29:48;;;;;;;5.60;4.50;;;;;;;-128.00;-1.00;-1.00;103002;1259;1011511;-66
2023/06/11 10:32:19;;;;;;;7.00;4.60;;;;;;;-128.00;-1.00;-1.00;103337;1256;1013022;-63
2023/06/11 10:34:54;;;;;;;5.00;3.70;;;;;;;-128.00;-1.00;-1.00;103308;1256;1012640;-64
2023/06/11 10:37:36;;;;;;;4.40;4.00;;;;;;;-128.00;-1.00;-1.00;103341;1256;1012617;-62
2023/06/11 10:40:05;;;;;;;7.80;4.20;;;;;;;-128.00;-1.00;-1.00;103326;1254;1010061;-63
2023/06/11 10:42:40;;;;;;;6.30;4.00;;;;;;;-128.00;-1.00;-1.00;103410;1256;1011144;-67
2023/06/11 10:45:11;;;;;;;6.90;4.80;;;;;;;-128.00;-1.00;-1.00;103334;1256;1012689;-60
2023/06/11 10:47:51;;;;;;;5.70;3.90;;;;;;;-128.00;-1.00;-1.00;103371;1254;1012584;-64
2023/06/11 10:50:30;;;;;;;7.80;4.90;;;;;;;-128.00;-1.00;-1.00;103373;1254;1012995;-62
2023/06/11 10:52:58;;;;;;;4.30;3.90;;;;;;;-128.00;-1.00;-1.00;103059;1254;1010294;-61
2023/06/11 10:55:29;;;;;;;5.10;4.60;;;;;;;-128.00;-1.00;-1.00;103249;1256;1002393;-62
2023/06/11 10:57:56;;;;;;;4.70;4.20;;;;;;;-128.00;-1.00;-1.00;103358;1257;1012856;-61
2023/06/11 11:00:23;;;;;;;11.20;4.60;;;;;;;-128.00;-1.00;-1.00;103408;1256;1003060;-62
2023/06/11 11:02:51;;;;;;;6.20;4.80;;;;;;;-128.00;-1.00;-1.00;103360;1253;1002147;-63
2023/06/11 11:05:18;;;;;;;8.20;5.20;;;;;;;-128.00;-1.00;-1.00;103360;1254;1002674;-69
2023/06/11 11:07:45;;;;;;;7.70;4.60;;;;;;;-128.00;-1.00;-1.00;102768;1256;1002824;-67
2023/06/11 11:10:15;;;;;;;4.00;3.60;;;;;;;-128.00;-1.00;-1.00;103066;1261;1002651;-68
2023/06/11 11:12:47;;;;;;;4.70;4.00;;;;;;;-128.00;-1.00;-1.00;102665;1265;1013418;-61
2023/06/11 11:15:14;;;;;;;4.90;3.60;;;;;;;-128.00;-1.00;-1.00;102951;1257;1012894;-64
2023/06/11 11:17:42;;;;;;;6.40;4.80;;;;;;;-128.00;-1.00;-1.00;103042;1257;1002653;-67
2023/06/11 11:20:10;;;;;;;7.30;4.70;;;;;;;-128.00;-1.00;-1.00;102990;1257;1002858;-63
2023/06/11 11:22:37;;;;;;;6.70;4.60;;;;;;;-128.00;-1.00;-1.00;103032;1256;1013562;-64